createdAt,value
2018-09-05T00:00:35.309Z,14.93
2018-09-05T00:03:03.739Z,14.80
2018-09-05T00:05:32.123Z,14.70
2018-09-05T00:08:00.560Z,14.63
2018-09-05T00:10:28.962Z,14.30
2018-09-05T00:12:57.389Z,14.60
2018-09-05T00:15:25.786Z,14.90
2018-09-05T00:17:54.434Z,15.13
2018-09-05T00:20:22.861Z,15.30
2018-09-05T00:22:51.219Z,15.33
2018-09-05T00:25:19.659Z,15.23
2018-09-05T00:27:48.046Z,15.07
2018-09-05T00:30:16.540Z,15.17
2018-09-05T00:32:44.893Z,15.43
2018-09-05T00:35:13.921Z,15.43
2018-09-05T00:37:42.335Z,15.50
2018-09-05T00:40:11.517Z,14.83
2018-09-05T00:42:39.943Z,15.37
2018-09-05T00:45:08.336Z,14.80
2018-09-05T00:47:36.701Z,13.93
2018-09-05T00:50:05.367Z,14.80
2018-09-05T00:52:34.058Z,14.27
2018-09-05T00:55:03.364Z,13.60
2018-09-05T00:57:31.986Z,14.63
2018-09-05T01:00:00.394Z,16.23
2018-09-05T01:02:28.814Z,14.90
2018-09-05T01:04:57.321Z,13.50
2018-09-05T01:07:27.547Z,14.03
2018-09-05T01:09:56.056Z,13.73
2018-09-05T01:12:25.156Z,13.53
2018-09-05T01:14:54.435Z,13.87
2018-09-05T01:17:23.148Z,13.67
2018-09-05T01:19:51.698Z,13.00
2018-09-05T01:22:20.096Z,14.43
2018-09-05T01:24:49.515Z,13.83
2018-09-05T01:27:17.918Z,14.10
2018-09-05T01:29:46.336Z,14.73
2018-09-05T01:32:14.759Z,12.93
2018-09-05T01:34:43.156Z,12.70
2018-09-05T01:37:11.823Z,12.80
2018-09-05T01:39:40.587Z,12.77
2018-09-05T01:42:10.065Z,12.60
2018-09-05T01:44:38.599Z,12.83
2018-09-05T01:47:07.248Z,12.70
2018-09-05T01:49:36.445Z,12.93
2018-09-05T01:52:05.459Z,12.03
2018-09-05T01:54:33.867Z,11.43
2018-09-05T01:57:02.858Z,12.20
2018-09-05T01:59:31.246Z,12.60
2018-09-05T02:01:59.688Z,12.87
2018-09-05T02:04:28.181Z,12.73
2018-09-05T02:06:56.822Z,13.47
2018-09-05T02:09:25.262Z,14.60
2018-09-05T02:11:53.654Z,13.63
2018-09-05T02:14:22.801Z,12.67
2018-09-05T02:16:51.267Z,13.17
2018-09-05T02:19:19.658Z,13.27
2018-09-05T02:21:48.103Z,13.07
2018-09-05T02:24:16.515Z,13.13
2018-09-05T02:26:45.195Z,12.90
2018-09-05T02:29:13.608Z,12.97
2018-09-05T02:31:41.994Z,12.97
2018-09-05T02:34:11.046Z,12.90
2018-09-05T02:36:39.571Z,13.67
2018-09-05T02:39:09.457Z,12.80
2018-09-05T02:41:37.968Z,12.53
2018-09-05T02:44:11.807Z,12.50
2018-09-05T02:47:43.600Z,13.00
2018-09-05T02:50:13.044Z,12.83
2018-09-05T02:52:41.511Z,13.30
2018-09-05T02:55:09.947Z,13.40
2018-09-05T02:57:38.368Z,12.67
2018-09-05T03:00:06.803Z,13.10
2018-09-05T03:02:35.394Z,13.30
2018-09-05T03:05:03.808Z,13.57
2018-09-05T03:07:32.388Z,12.70
2018-09-05T03:10:00.929Z,13.00
2018-09-05T03:12:29.404Z,13.17
2018-09-05T03:14:57.785Z,13.93
2018-09-05T03:17:26.223Z,11.53
2018-09-05T03:19:54.675Z,12.77
2018-09-05T03:22:23.136Z,12.50
2018-09-05T03:24:51.684Z,12.13
2018-09-05T03:27:20.068Z,13.23
2018-09-05T03:29:48.618Z,12.90
2018-09-05T03:32:17.072Z,12.43
2018-09-05T03:34:45.575Z,13.33
2018-09-05T03:37:13.991Z,12.93
2018-09-05T03:39:42.730Z,13.37
2018-09-05T03:42:11.098Z,13.07
2018-09-05T03:44:39.540Z,12.57
2018-09-05T03:47:07.995Z,12.97
2018-09-05T03:49:38.047Z,14.23
2018-09-05T03:52:06.447Z,14.23
2018-09-05T03:54:34.855Z,13.00
2018-09-05T03:57:03.258Z,13.27
2018-09-05T03:59:31.836Z,14.83
2018-09-05T04:02:00.229Z,13.87
2018-09-05T04:04:30.595Z,15.20
2018-09-05T04:07:00.061Z,14.80
2018-09-05T04:09:28.493Z,15.57
2018-09-05T04:11:57.025Z,14.10
2018-09-05T04:14:25.527Z,15.03
2018-09-05T04:16:54.047Z,14.80
2018-09-05T04:19:22.434Z,14.97
2018-09-05T04:21:50.884Z,15.03
2018-09-05T04:24:19.370Z,16.27
2018-09-05T04:26:47.803Z,15.97
2018-09-05T04:29:18.153Z,16.03
2018-09-05T04:31:52.816Z,15.63
2018-09-05T04:34:21.458Z,17.10
2018-09-05T04:36:49.857Z,15.93
2018-09-05T04:39:18.315Z,15.53
2018-09-05T04:41:46.751Z,15.40
2018-09-05T04:44:15.812Z,15.37
2018-09-05T04:46:44.875Z,15.53
2018-09-05T04:49:13.282Z,15.90
2018-09-05T04:51:41.732Z,16.30
2018-09-05T04:54:10.172Z,15.23
2018-09-05T04:56:38.648Z,15.53
2018-09-05T04:59:07.107Z,16.20
2018-09-05T05:01:36.234Z,15.80
2018-09-05T05:04:04.695Z,15.17
2018-09-05T05:06:33.923Z,16.07
2018-09-05T05:09:02.742Z,16.53
2018-09-05T05:11:31.139Z,16.73
2018-09-05T05:13:59.536Z,15.60
2018-09-05T05:16:28.145Z,16.37
2018-09-05T05:18:56.644Z,16.90
2018-09-05T05:21:31.185Z,17.57
2018-09-05T05:23:59.786Z,16.70
2018-09-05T05:26:28.725Z,16.73
2018-09-05T05:28:57.660Z,19.20
2018-09-05T05:31:26.160Z,16.20
2018-09-05T05:33:54.719Z,16.93
2018-09-05T05:36:23.095Z,16.53
2018-09-05T05:38:51.778Z,16.50
2018-09-05T05:41:20.170Z,18.03
2018-09-05T05:43:49.444Z,17.77
2018-09-05T05:46:18.563Z,17.37
2018-09-05T05:48:47.682Z,17.67
2018-09-05T05:51:16.269Z,17.80
2018-09-05T05:53:44.659Z,17.07
2018-09-05T05:56:13.198Z,17.77
2018-09-05T05:58:41.746Z,16.87
2018-09-05T06:01:10.195Z,17.13
2018-09-05T06:03:38.750Z,16.40
2018-09-05T06:06:07.377Z,18.37
2018-09-05T06:08:36.089Z,18.00
2018-09-05T06:11:05.024Z,18.40
2018-09-05T06:13:33.593Z,23.93
2018-09-05T06:16:02.180Z,17.93
2018-09-05T06:18:30.540Z,18.53
2018-09-05T06:20:58.967Z,19.77
2018-09-05T06:23:27.419Z,19.80
2018-09-05T06:25:55.928Z,17.03
2018-09-05T06:28:24.386Z,19.33
2018-09-05T06:30:52.855Z,18.63
2018-09-05T06:33:21.627Z,18.80
2018-09-05T06:35:50.063Z,20.60
2018-09-05T06:38:18.715Z,19.87
2018-09-05T06:40:47.211Z,20.80
2018-09-05T06:43:15.658Z,21.83
2018-09-05T06:45:44.200Z,20.53
2018-09-05T06:48:12.760Z,19.17
2018-09-05T06:50:41.999Z,19.07
2018-09-05T06:53:10.551Z,20.03
2018-09-05T06:55:38.983Z,19.43
2018-09-05T06:58:07.555Z,18.07
2018-09-05T07:00:36.121Z,19.03
2018-09-05T07:03:04.532Z,18.23
2018-09-05T07:05:32.977Z,21.40
2018-09-05T07:08:01.827Z,18.97
2018-09-05T07:10:30.802Z,19.53
2018-09-05T07:12:59.292Z,17.77
2018-09-05T07:15:27.718Z,17.40
2018-09-05T07:17:56.179Z,17.10
2018-09-05T07:20:25.975Z,16.77
2018-09-05T07:22:54.660Z,15.77
2018-09-05T07:25:23.092Z,16.67
2018-09-05T07:27:51.515Z,15.33
2018-09-05T07:30:20.318Z,15.43
2018-09-05T07:32:48.748Z,15.63
2018-09-05T07:35:17.824Z,14.60
2018-09-05T07:37:46.210Z,16.17
2018-09-05T07:40:14.590Z,15.47
2018-09-05T07:42:43.081Z,16.30
2018-09-05T07:45:11.464Z,19.00
2018-09-05T07:47:39.868Z,17.57
2018-09-05T07:50:08.316Z,16.90
2018-09-05T07:52:36.751Z,16.30
2018-09-05T07:55:05.263Z,16.50
2018-09-05T07:57:33.915Z,17.17
2018-09-05T08:00:03.259Z,15.47
2018-09-05T08:02:32.316Z,18.10
2018-09-05T08:05:00.742Z,16.10
2018-09-05T08:07:29.127Z,16.67
2018-09-05T08:09:57.543Z,14.83
2018-09-05T08:12:25.991Z,16.37
2018-09-05T08:14:54.582Z,14.30
2018-09-05T08:17:23.259Z,14.37
2018-09-05T08:19:51.671Z,13.57
2018-09-05T08:22:20.057Z,13.07
2018-09-05T08:24:49.464Z,14.33
2018-09-05T08:27:21.500Z,15.50
2018-09-05T08:29:50.056Z,14.17
2018-09-05T08:32:19.099Z,13.93
2018-09-05T08:34:47.654Z,12.57
2018-09-05T08:37:16.303Z,13.40
2018-09-05T08:39:44.520Z,13.27
2018-09-05T08:42:13.494Z,12.83
2018-09-05T08:44:42.713Z,12.90
2018-09-05T08:47:11.011Z,12.20
2018-09-05T08:49:39.441Z,16.40
2018-09-05T08:52:07.876Z,14.97
2018-09-05T08:54:36.278Z,11.83
2018-09-05T08:57:04.732Z,12.30
2018-09-05T08:59:33.799Z,13.93
2018-09-05T09:02:02.235Z,13.37
2018-09-05T09:04:30.775Z,12.30
2018-09-05T09:06:59.386Z,15.63
2018-09-05T09:09:27.860Z,10.87
2018-09-05T09:11:56.223Z,16.27
2018-09-05T09:14:24.654Z,12.23
2018-09-05T09:16:53.079Z,11.37
2018-09-05T09:19:21.437Z,13.90
2018-09-05T09:21:49.814Z,13.23
2018-09-05T09:24:18.350Z,14.47
2018-09-05T09:26:47.653Z,12.70
2018-09-05T09:29:16.079Z,12.53
2018-09-05T09:31:44.570Z,15.80
2018-09-05T09:34:13.381Z,16.00
2018-09-05T09:36:41.923Z,14.87
2018-09-05T09:39:11.522Z,13.80
2018-09-05T09:41:40.148Z,15.93
2018-09-05T09:44:08.631Z,13.47
2018-09-05T09:46:37.101Z,16.90
2018-09-05T09:49:05.483Z,14.10
2018-09-05T09:51:34.872Z,15.13
2018-09-05T09:54:04.039Z,12.17
2018-09-05T09:56:32.534Z,17.00
2018-09-05T09:59:01.085Z,10.77
2018-09-05T10:01:36.659Z,13.67
2018-09-05T10:04:10.673Z,12.37
2018-09-05T10:06:48.197Z,11.53
2018-09-05T10:09:22.660Z,10.50
2018-09-05T10:11:56.554Z,13.97
2018-09-05T10:14:30.416Z,12.53
2018-09-05T10:17:05.079Z,11.90
2018-09-05T10:19:33.615Z,11.20
2018-09-05T10:22:01.979Z,14.57
2018-09-05T10:24:30.404Z,11.27
2018-09-05T10:26:58.879Z,11.37
2018-09-05T10:29:27.263Z,8.67
2018-09-05T10:31:55.698Z,11.17
2018-09-05T10:34:24.187Z,7.75
2018-09-05T10:36:52.600Z,12.10
2018-09-05T10:39:20.998Z,13.10
2018-09-05T10:41:49.361Z,6.75
2018-09-05T10:44:18.515Z,7.50
2018-09-05T10:46:46.987Z,7.23
2018-09-05T10:49:15.375Z,7.63
2018-09-05T10:51:49.333Z,7.50
2018-09-05T10:54:17.716Z,7.10
2018-09-05T10:56:46.119Z,7.72
2018-09-05T10:59:14.506Z,7.03
2018-09-05T11:01:42.930Z,7.28
2018-09-05T11:04:11.534Z,7.67
2018-09-05T11:06:40.577Z,7.78
2018-09-05T11:09:09.987Z,8.30
2018-09-05T11:11:38.600Z,6.40
2018-09-05T11:14:07.451Z,6.37
2018-09-05T11:16:36.163Z,8.93
2018-09-05T11:19:04.571Z,6.70
2018-09-05T11:21:33.605Z,7.10
2018-09-05T11:24:01.982Z,7.08
2018-09-05T11:26:30.407Z,6.87
2018-09-05T11:28:59.253Z,7.22
2018-09-05T11:31:27.982Z,6.22
2018-09-05T11:33:56.460Z,9.73
2018-09-05T11:36:25.018Z,8.08
2018-09-05T11:38:53.476Z,7.08
2018-09-05T11:41:22.357Z,6.85
2018-09-05T11:43:50.987Z,7.37
2018-09-05T11:46:19.603Z,6.00
2018-09-05T11:48:47.992Z,8.45
2018-09-05T11:51:16.383Z,10.03
2018-09-05T11:53:44.761Z,7.53
2018-09-05T11:56:13.278Z,6.22
2018-09-05T11:58:41.703Z,6.28
2018-09-05T12:01:10.200Z,7.65
2018-09-05T12:03:38.621Z,7.10
2018-09-05T12:06:07.017Z,6.65
2018-09-05T12:08:35.447Z,8.15
2018-09-05T12:11:03.851Z,7.53
2018-09-05T12:13:37.241Z,6.90
2018-09-05T12:16:05.839Z,6.37
2018-09-05T12:18:34.239Z,6.10
2018-09-05T12:21:02.606Z,7.28
2018-09-05T12:23:31.023Z,7.12
2018-09-05T12:25:59.442Z,8.05
2018-09-05T12:28:27.851Z,6.70
2018-09-05T12:30:56.217Z,6.65
2018-09-05T12:33:24.701Z,6.78
2018-09-05T12:35:53.731Z,7.00
2018-09-05T12:38:22.228Z,6.92
2018-09-05T12:40:50.621Z,7.12
2018-09-05T12:43:19.003Z,6.28
2018-09-05T12:45:47.526Z,7.35
2018-09-05T12:48:16.565Z,6.53
2018-09-05T12:50:45.195Z,9.43
2018-09-05T12:53:14.596Z,6.40
2018-09-05T12:55:42.979Z,6.50
2018-09-05T12:58:11.415Z,6.67
2018-09-05T13:00:39.898Z,5.80
2018-09-05T13:03:08.467Z,6.08
2018-09-05T13:05:36.925Z,6.17
2018-09-05T13:08:05.332Z,6.65
2018-09-05T13:10:34.071Z,5.95
2018-09-05T13:13:03.127Z,6.70
2018-09-05T13:15:31.613Z,8.63
2018-09-05T13:18:00.046Z,6.78
2018-09-05T13:20:28.508Z,6.35
2018-09-05T13:22:56.980Z,6.03
2018-09-05T13:25:25.304Z,8.48
2018-09-05T13:27:53.953Z,8.73
2018-09-05T13:30:22.464Z,7.55
2018-09-05T13:32:50.995Z,8.23
2018-09-05T13:35:19.386Z,6.15
2018-09-05T13:37:48.023Z,6.05
2018-09-05T13:40:16.555Z,5.50
2018-09-05T13:42:45.869Z,5.50
2018-09-05T13:45:14.407Z,7.17
2018-09-05T13:47:43.132Z,10.38
2018-09-05T13:50:11.613Z,6.10
2018-09-05T13:52:40.174Z,6.03
2018-09-05T13:55:09.743Z,7.28
2018-09-05T13:57:38.126Z,6.00
2018-09-05T14:00:06.535Z,5.22
2018-09-05T14:02:36.116Z,5.37
2018-09-05T14:05:04.667Z,5.62
2018-09-05T14:07:35.358Z,5.70
2018-09-05T14:10:04.178Z,5.60
2018-09-05T14:12:32.563Z,6.53
2018-09-05T14:15:01.335Z,5.97
2018-09-05T14:17:29.701Z,5.60
2018-09-05T14:19:58.127Z,6.33
2018-09-05T14:22:27.671Z,5.75
2018-09-05T14:24:56.062Z,6.05
2018-09-05T14:27:24.530Z,5.85
2018-09-05T14:29:52.903Z,6.45
2018-09-05T14:32:21.535Z,5.60
2018-09-05T14:34:49.941Z,6.00
2018-09-05T14:37:18.356Z,6.53
2018-09-05T14:39:46.828Z,12.47
2018-09-05T14:42:15.242Z,6.97
2018-09-05T14:44:43.754Z,5.65
2018-09-05T14:47:12.334Z,5.80
2018-09-05T14:49:40.945Z,5.87
2018-09-05T14:52:09.351Z,5.60
2018-09-05T14:54:37.881Z,5.47
2018-09-05T14:57:06.875Z,5.45
2018-09-05T14:59:35.352Z,5.85
2018-09-05T15:02:03.855Z,5.45
2018-09-05T15:04:32.249Z,5.50
2018-09-05T15:07:00.712Z,5.80
2018-09-05T15:09:29.206Z,6.22
2018-09-05T15:11:57.895Z,5.90
2018-09-05T15:14:26.447Z,5.42
2018-09-05T15:16:54.866Z,5.85
2018-09-05T15:19:23.277Z,5.90
2018-09-05T15:21:51.656Z,5.83
2018-09-05T15:24:20.098Z,5.70
2018-09-05T15:26:48.522Z,5.95
2018-09-05T15:29:16.886Z,5.53
2018-09-05T15:31:45.317Z,6.80
2018-09-05T15:34:13.722Z,5.30
2018-09-05T15:36:42.139Z,6.20
2018-09-05T15:39:11.285Z,6.70
2018-09-05T15:41:39.784Z,5.58
2018-09-05T15:44:08.335Z,5.67
2018-09-05T15:46:36.792Z,6.17
2018-09-05T15:49:05.405Z,8.50
2018-09-05T15:51:33.900Z,6.87
2018-09-05T15:54:02.435Z,7.35
2018-09-05T15:56:30.791Z,5.72
2018-09-05T15:58:59.240Z,7.50
2018-09-05T16:01:27.907Z,6.67
2018-09-05T16:03:57.983Z,5.60
2018-09-05T16:06:27.497Z,6.25
2018-09-05T16:08:55.906Z,5.90
2018-09-05T16:11:24.399Z,5.20
2018-09-05T16:13:52.958Z,6.55
2018-09-05T16:16:21.471Z,6.33
2018-09-05T16:18:49.930Z,4.83
2018-09-05T16:21:18.359Z,5.60
2018-09-05T16:23:46.989Z,5.80
2018-09-05T16:26:15.512Z,5.57
2018-09-05T16:28:44.217Z,5.65
2018-09-05T16:31:12.632Z,6.50
2018-09-05T16:33:43.236Z,7.50
2018-09-05T16:36:11.774Z,5.60
2018-09-05T16:38:40.312Z,6.20
2018-09-05T16:41:09.121Z,5.63
2018-09-05T16:43:37.610Z,6.05
2018-09-05T16:46:07.330Z,8.13
2018-09-05T16:48:35.866Z,5.80
2018-09-05T16:51:04.247Z,5.47
2018-09-05T16:53:32.648Z,5.60
2018-09-05T16:56:01.399Z,5.92
2018-09-05T16:58:29.795Z,7.97
2018-09-05T17:00:58.892Z,6.47
2018-09-05T17:03:27.319Z,9.03
2018-09-05T17:05:56.096Z,6.08
2018-09-05T17:08:24.588Z,6.30
2018-09-05T17:10:53.126Z,7.85
2018-09-05T17:13:21.542Z,6.22
2018-09-05T17:15:49.958Z,5.97
2018-09-05T17:18:18.431Z,6.00
2018-09-05T17:20:47.584Z,9.20
2018-09-05T17:23:16.232Z,6.70
2018-09-05T17:25:44.804Z,5.97
2018-09-05T17:28:13.246Z,5.92
2018-09-05T17:30:42.036Z,6.08
2018-09-05T17:33:10.557Z,7.12
2018-09-05T17:35:39.147Z,6.90
2018-09-05T17:38:07.894Z,6.25
2018-09-05T17:40:36.358Z,6.28
2018-09-05T17:43:04.732Z,6.40
2018-09-05T17:45:33.191Z,5.92
2018-09-05T17:48:01.595Z,6.12
2018-09-05T17:50:30.000Z,6.85
2018-09-05T17:52:58.386Z,6.55
2018-09-05T17:55:26.888Z,6.10
2018-09-05T17:57:55.270Z,6.40
2018-09-05T18:00:24.542Z,6.10
2018-09-05T18:02:52.976Z,6.95
2018-09-05T18:05:21.366Z,6.40
2018-09-05T18:07:50.677Z,6.87
2018-09-05T18:10:19.087Z,7.60
2018-09-05T18:12:47.552Z,6.67
2018-09-05T18:15:15.946Z,6.73
2018-09-05T18:17:44.399Z,9.30
2018-09-05T18:20:12.824Z,6.80
2018-09-05T18:22:41.314Z,7.47
2018-09-05T18:25:09.854Z,8.85
2018-09-05T18:27:38.744Z,7.78
2018-09-05T18:30:07.568Z,10.37
2018-09-05T18:32:36.058Z,6.87
2018-09-05T18:35:05.647Z,7.53
2018-09-05T18:37:34.059Z,7.80
2018-09-05T18:40:02.732Z,7.22
2018-09-05T18:42:31.146Z,7.37
2018-09-05T18:45:00.915Z,7.90
2018-09-05T18:47:29.303Z,7.47
2018-09-05T18:49:58.306Z,7.85
2018-09-05T18:52:26.750Z,7.28
2018-09-05T18:54:55.154Z,6.57
2018-09-05T18:57:23.558Z,6.60
2018-09-05T18:59:52.001Z,8.70
2018-09-05T19:02:20.413Z,8.33
2018-09-05T19:04:48.863Z,6.47
2018-09-05T19:07:17.367Z,7.78
2018-09-05T19:09:45.790Z,7.17
2018-09-05T19:12:14.202Z,7.42
2018-09-05T19:14:46.398Z,9.50
2018-09-05T19:17:14.984Z,7.55
2018-09-05T19:19:43.395Z,8.37
2018-09-05T19:22:12.725Z,7.73
2018-09-05T19:24:41.255Z,8.17
2018-09-05T19:27:09.663Z,9.27
2018-09-05T19:29:44.696Z,8.13
2018-09-05T19:32:13.141Z,7.60
2018-09-05T19:34:41.790Z,6.70
2018-09-05T19:37:11.620Z,7.23
2018-09-05T19:39:42.260Z,7.40
2018-09-05T19:42:10.684Z,11.10
2018-09-05T19:44:42.394Z,8.30
2018-09-05T19:47:11.869Z,7.83
2018-09-05T19:49:40.318Z,8.63
2018-09-05T19:52:08.982Z,8.43
2018-09-05T19:54:37.532Z,8.20
2018-09-05T19:57:06.280Z,8.37
2018-09-05T19:59:34.704Z,9.63
2018-09-05T20:02:05.193Z,9.30
2018-09-05T20:04:34.494Z,8.90
2018-09-05T20:07:02.916Z,8.37
2018-09-05T20:09:31.307Z,8.57
2018-09-05T20:11:59.874Z,8.20
2018-09-05T20:14:28.326Z,8.17
2018-09-05T20:16:56.827Z,8.13
2018-09-05T20:19:25.898Z,9.10
2018-09-05T20:21:54.345Z,8.50
2018-09-05T20:24:22.989Z,9.97
2018-09-05T20:26:51.502Z,8.83
2018-09-05T20:29:19.979Z,11.43
2018-09-05T20:31:49.095Z,8.70
2018-09-05T20:34:18.103Z,8.67
2018-09-05T20:36:47.100Z,9.97
2018-09-05T20:39:15.561Z,8.83
2018-09-05T20:41:43.924Z,9.00
2018-09-05T20:44:12.515Z,8.63
2018-09-05T20:46:42.222Z,9.30
2018-09-05T20:49:10.650Z,9.33
2018-09-05T20:51:39.034Z,9.07
2018-09-05T20:54:07.455Z,10.90
2018-09-05T20:56:35.918Z,8.97
2018-09-05T20:59:04.379Z,9.40
2018-09-05T21:01:32.787Z,9.10
2018-09-05T21:04:01.984Z,9.43
2018-09-05T21:06:30.369Z,9.43
2018-09-05T21:08:58.877Z,9.00
2018-09-05T21:11:27.368Z,9.33
2018-09-05T21:13:55.868Z,8.67
2018-09-05T21:16:24.362Z,9.90
2018-09-05T21:18:52.914Z,9.40
2018-09-05T21:21:21.361Z,8.53
2018-09-05T21:23:49.860Z,9.13
2018-09-05T21:26:18.353Z,9.80
2018-09-05T21:28:46.879Z,9.03
2018-09-05T21:31:15.466Z,11.23
2018-09-05T21:33:43.908Z,9.07
2018-09-05T21:36:12.395Z,10.30
2018-09-05T21:38:40.874Z,11.10
2018-09-05T21:41:09.316Z,11.87
2018-09-05T21:43:38.460Z,10.10
2018-09-05T21:46:06.990Z,9.40
2018-09-05T21:48:36.282Z,8.90
2018-09-05T21:51:04.906Z,11.13
2018-09-05T21:53:33.303Z,11.13
2018-09-05T21:56:01.812Z,10.40
2018-09-05T21:58:30.201Z,9.40
2018-09-05T22:00:58.756Z,9.77
2018-09-05T22:03:27.139Z,10.53
2018-09-05T22:05:56.975Z,11.00
2018-09-05T22:08:25.471Z,10.53
2018-09-05T22:10:53.955Z,11.20
2018-09-05T22:13:22.420Z,10.30
2018-09-05T22:15:50.874Z,10.30
2018-09-05T22:18:19.367Z,11.37
2018-09-05T22:20:47.888Z,10.87
2018-09-05T22:23:17.152Z,11.13
2018-09-05T22:25:45.537Z,11.17
2018-09-05T22:28:14.052Z,10.10
2018-09-05T22:30:42.458Z,10.07
2018-09-05T22:33:10.884Z,11.80
2018-09-05T22:35:39.385Z,10.53
2018-09-05T22:38:07.927Z,9.80
2018-09-05T22:40:41.691Z,10.20
2018-09-05T22:43:21.518Z,11.47
2018-09-05T22:46:01.207Z,10.33
2018-09-05T22:50:54.391Z,11.00
2018-09-05T22:53:42.747Z,12.27
2018-09-05T22:56:42.333Z,11.23
2018-09-05T22:59:31.820Z,9.80
2018-09-05T23:02:11.614Z,10.77
2018-09-05T23:07:02.053Z,9.87
2018-09-05T23:09:41.866Z,10.23
2018-09-05T23:13:23.308Z,10.67
2018-09-05T23:16:03.305Z,10.47
2018-09-05T23:18:43.322Z,9.97
2018-09-05T23:21:18.561Z,10.63
2018-09-05T23:23:55.248Z,10.63
2018-09-05T23:26:24.515Z,11.17
2018-09-05T23:28:52.928Z,11.70
2018-09-05T23:31:21.759Z,10.27
2018-09-05T23:33:50.196Z,10.77
2018-09-05T23:36:18.859Z,10.17
2018-09-05T23:38:47.301Z,10.50
2018-09-05T23:41:16.020Z,11.20
2018-09-05T23:43:44.498Z,10.70
2018-09-05T23:46:13.171Z,9.77
2018-09-05T23:48:43.204Z,10.60
2018-09-05T23:51:11.647Z,10.33
2018-09-05T23:53:40.050Z,10.40
2018-09-05T23:56:08.820Z,9.63
2018-09-05T23:58:37.255Z,10.67
